Time;durP1;ratioP1;P1;durP2;ratioP2;P2;SDS_P1;SDS_P2;PMS_P1;PMS_P2;Temp;Humidity;BMP_temperature;BMP_pressure;BME280_temperature;BME280_humidity;BME280_pressure;Samples;Min_cycle;Max_cycle;Signal;HPM_P1;HPM_P2
2021/04/27 00:02:12;;;;;;;0.77;0.40;;;22.80;25.10;;;;;;5090323;28;20048;-62
2021/04/27 00:04:38;;;;;;;0.63;0.45;;;22.80;25.10;;;;;;5074381;28;20048;-61
2021/04/27 00:07:04;;;;;;;0.82;0.43;;;22.80;25.10;;;;;;5086866;28;20058;-61
2021/04/27 00:09:30;;;;;;;1.00;0.50;;;22.80;25.10;;;;;;5094033;28;20039;-62
2021/04/27 00:11:57;;;;;;;0.50;0.40;;;22.80;25.10;;;;;;5076507;28;20032;-61
2021/04/27 00:14:23;;;;;;;0.90;0.47;;;22.70;25.10;;;;;;5042811;28;20436;-61
2021/04/27 00:16:49;;;;;;;0.95;0.50;;;22.80;25.10;;;;;;5076213;28;20112;-61
2021/04/27 00:19:14;;;;;;;0.93;0.43;;;22.70;25.10;;;;;;5073648;28;20028;-61
2021/04/27 00:21:40;;;;;;;0.50;0.40;;;22.70;25.10;;;;;;5090304;28;20040;-62
2021/04/27 00:24:06;;;;;;;0.88;0.50;;;22.70;25.10;;;;;;5093225;28;20028;-62
2021/04/27 00:26:33;;;;;;;0.70;0.40;;;22.70;25.10;;;;;;5080111;28;20043;-62
2021/04/27 00:28:59;;;;;;;0.85;0.40;;;22.70;25.10;;;;;;5079177;28;20032;-62
2021/04/27 00:31:27;;;;;;;0.95;0.38;;;22.70;25.10;;;;;;5078390;28;20077;-61
2021/04/27 00:33:54;;;;;;;0.55;0.30;;;22.70;25.10;;;;;;5078944;28;20107;-61
2021/04/27 00:36:20;;;;;;;0.70;0.50;;;22.70;25.10;;;;;;5086574;28;20032;-63
2021/04/27 00:38:46;;;;;;;0.47;0.40;;;22.70;25.10;;;;;;5066123;28;20116;-63
2021/04/27 00:41:11;;;;;;;0.50;0.30;;;22.70;25.20;;;;;;5084898;28;20040;-62
2021/04/27 00:43:37;;;;;;;0.77;0.40;;;22.70;25.10;;;;;;5063075;28;20507;-62
2021/04/27 00:46:03;;;;;;;1.08;0.60;;;22.60;25.10;;;;;;5064197;28;20364;-61
2021/04/27 00:48:29;;;;;;;1.38;0.60;;;22.70;25.20;;;;;;5090032;28;20119;-59
2021/04/27 00:50:55;;;;;;;0.60;0.43;;;22.60;25.10;;;;;;5080578;28;20064;-63
2021/04/27 00:53:21;;;;;;;1.30;0.50;;;22.70;25.20;;;;;;5077652;28;20406;-60
2021/04/27 00:55:46;;;;;;;1.48;0.65;;;22.60;25.20;;;;;;5066992;28;20032;-61
2021/04/27 00:58:13;;;;;;;0.65;0.50;;;22.60;25.20;;;;;;5090581;28;20052;-63
2021/04/27 01:00:41;;;;;;;1.02;0.50;;;22.60;25.20;;;;;;5078043;28;20401;-61
2021/04/27 01:03:07;;;;;;;1.33;0.60;;;22.60;25.20;;;;;;5094554;28;20379;-61
2021/04/27 01:05:36;;;;;;;0.90;0.40;;;22.60;25.20;;;;;;5094957;28;20024;-62
2021/04/27 01:08:13;;;;;;;0.73;0.40;;;22.60;25.20;;;;;;5093942;28;20046;-62
2021/04/27 01:11:11;;;;;;;0.60;0.50;;;22.60;25.20;;;;;;5073737;28;20024;-59
2021/04/27 01:13:46;;;;;;;0.95;0.40;;;22.60;25.20;;;;;;5038345;28;20051;-60
2021/04/27 01:16:14;;;;;;;0.45;0.40;;;22.60;25.30;;;;;;5065597;28;20028;-62
2021/04/27 01:18:44;;;;;;;0.50;0.32;;;22.60;25.30;;;;;;5038903;28;20017;-62
2021/04/27 01:21:13;;;;;;;0.88;0.40;;;22.60;25.30;;;;;;5060910;28;20060;-60
2021/04/27 01:23:49;;;;;;;1.05;0.50;;;22.60;25.30;;;;;;5058187;28;20037;-62
2021/04/27 01:26:20;;;;;;;0.52;0.30;;;22.60;25.30;;;;;;5078146;28;20032;-61
2021/04/27 01:28:51;;;;;;;0.45;0.45;;;22.50;25.20;;;;;;5081878;28;20028;-64
2021/04/27 01:31:18;;;;;;;1.90;0.68;;;22.50;25.20;;;;;;5090144;28;20020;-62
2021/04/27 01:33:44;;;;;;;0.90;0.70;;;22.50;25.20;;;;;;5061116;28;20025;-62
2021/04/27 01:36:11;;;;;;;0.80;0.40;;;22.50;25.30;;;;;;5065404;28;20016;-61
2021/04/27 01:38:49;;;;;;;0.90;0.50;;;22.50;25.30;;;;;;5040473;28;20044;-62
2021/04/27 01:41:17;;;;;;;0.57;0.30;;;22.50;25.30;;;;;;5071465;28;20100;-61
2021/04/27 01:43:43;;;;;;;1.17;0.50;;;22.50;25.30;;;;;;5069400;28;20556;-60
2021/04/27 01:46:10;;;;;;;0.77;0.50;;;22.50;25.30;;;;;;5088384;28;20032;-61
2021/04/27 01:48:38;;;;;;;0.38;0.30;;;22.50;25.30;;;;;;5086007;28;20031;-61
2021/04/27 01:51:08;;;;;;;0.55;0.40;;;22.50;25.30;;;;;;5071984;28;20439;-62
2021/04/27 01:53:53;;;;;;;0.85;0.30;;;22.50;25.30;;;;;;5089928;28;20039;-62
2021/04/27 01:56:22;;;;;;;0.75;0.40;;;22.50;25.30;;;;;;5073267;28;20040;-62
2021/04/27 01:58:49;;;;;;;0.73;0.45;;;22.50;25.30;;;;;;5089940;28;20024;-61
2021/04/27 02:01:16;;;;;;;0.88;0.50;;;22.50;25.30;;;;;;5060570;28;20522;-60
2021/04/27 02:03:47;;;;;;;0.88;0.50;;;22.40;25.20;;;;;;5076583;28;20052;-60
2021/04/27 02:06:32;;;;;;;0.47;0.40;;;22.40;25.20;;;;;;5082316;28;20051;-61
2021/04/27 02:09:10;;;;;;;0.98;0.50;;;22.40;25.20;;;;;;5072244;28;20025;-62
2021/04/27 02:11:43;;;;;;;0.47;0.38;;;22.40;25.20;;;;;;5073876;28;20098;-62
2021/04/27 02:14:12;;;;;;;0.73;0.50;;;22.40;25.20;;;;;;5058218;28;20024;-61
2021/04/27 02:16:52;;;;;;;0.30;0.30;;;22.40;25.20;;;;;;5012324;28;20045;-61
2021/04/27 02:19:23;;;;;;;0.40;0.30;;;22.40;25.30;;;;;;5011412;28;20026;-61
2021/04/27 02:22:01;;;;;;;1.23;0.60;;;22.40;25.30;;;;;;5001554;28;20052;-61
2021/04/27 02:24:34;;;;;;;0.50;0.30;;;22.40;25.30;;;;;;5014348;28;20108;-62
2021/04/27 02:27:01;;;;;;;0.77;0.43;;;22.40;25.30;;;;;;5029157;28;20068;-62
2021/04/27 02:29:33;;;;;;;0.43;0.30;;;22.40;25.30;;;;;;5026476;28;20045;-61
2021/04/27 02:32:01;;;;;;;0.28;0.22;;;22.40;25.30;;;;;;5025100;28;20041;-60
2021/04/27 02:34:29;;;;;;;0.82;0.50;;;22.40;25.30;;;;;;5030552;28;20034;-60
2021/04/27 02:36:56;;;;;;;0.85;0.50;;;22.40;25.30;;;;;;5004056;28;20045;-62
2021/04/27 02:39:31;;;;;;;1.08;0.50;;;22.30;25.30;;;;;;5013092;28;20334;-61
2021/04/27 02:41:57;;;;;;;0.40;0.30;;;22.30;25.30;;;;;;5032223;28;20045;-61
2021/04/27 02:44:42;;;;;;;0.70;0.30;;;22.40;25.30;;;;;;5030780;28;20040;-62
2021/04/27 02:47:09;;;;;;;1.02;0.32;;;22.40;25.30;;;;;;5032653;28;20040;-61
2021/04/27 02:49:35;;;;;;;0.40;0.30;;;22.30;25.30;;;;;;5091182;28;20454;-62
2021/04/27 02:52:07;;;;;;;1.45;0.50;;;22.40;25.30;;;;;;5056166;28;20379;-62
2021/04/27 02:54:42;;;;;;;0.40;0.32;;;22.30;25.30;;;;;;5075787;28;20403;-61
2021/04/27 02:57:11;;;;;;;0.68;0.50;;;22.30;25.30;;;;;;5073386;28;20482;-61
2021/04/27 02:59:41;;;;;;;1.50;0.55;;;22.30;25.30;;;;;;5052937;28;20028;-61
2021/04/27 03:02:08;;;;;;;0.43;0.40;;;22.30;25.30;;;;;;5070690;28;20028;-62
2021/04/27 03:04:34;;;;;;;0.40;0.30;;;22.30;25.30;;;;;;5056556;28;20112;-61
2021/04/27 03:07:15;;;;;;;0.73;0.45;;;22.30;25.30;;;;;;5063236;28;20501;-60
2021/04/27 03:09:47;;;;;;;1.00;0.45;;;22.30;25.30;;;;;;5063229;28;20034;-61
2021/04/27 03:12:13;;;;;;;0.98;0.40;;;22.30;25.30;;;;;;5069948;28;20110;-61
2021/04/27 03:14:41;;;;;;;1.10;0.40;;;22.30;25.30;;;;;;5068203;28;20021;-62
2021/04/27 03:17:07;;;;;;;0.70;0.43;;;22.30;25.30;;;;;;5058456;28;20392;-62
2021/04/27 03:19:34;;;;;;;0.65;0.45;;;22.30;25.30;;;;;;5063510;28;20028;-62
2021/04/27 03:22:08;;;;;;;;;;;22.30;25.30;;;;;;5056713;28;20032;-62
2021/04/27 03:24:34;;;;;;;1.55;0.65;;;22.30;25.30;;;;;;5081999;28;20338;-62
2021/04/27 03:27:00;;;;;;;1.10;0.43;;;22.20;25.30;;;;;;5057782;28;20401;-62
2021/04/27 03:29:46;;;;;;;0.85;0.40;;;22.30;25.30;;;;;;5079388;28;20132;-61
2021/04/27 03:32:13;;;;;;;2.58;0.70;;;22.20;25.30;;;;;;5065963;28;20415;-61
2021/04/27 03:34:39;;;;;;;0.73;0.38;;;22.20;25.30;;;;;;5078518;28;20027;-62
2021/04/27 03:37:07;;;;;;;0.85;0.45;;;22.20;25.30;;;;;;5069310;28;20024;-62
2021/04/27 03:39:35;;;;;;;0.93;0.40;;;22.20;25.30;;;;;;5059342;28;20169;-62
2021/04/27 03:42:02;;;;;;;0.73;0.47;;;22.20;25.20;;;;;;5067327;28;20025;-61
2021/04/27 03:44:29;;;;;;;0.50;0.40;;;22.20;25.30;;;;;;5057588;28;20465;-61
2021/04/27 03:46:54;;;;;;;0.70;0.43;;;22.20;25.30;;;;;;5085989;28;20155;-62
2021/04/27 03:49:20;;;;;;;0.68;0.50;;;22.20;25.30;;;;;;5074171;28;20029;-62
2021/04/27 03:51:48;;;;;;;0.55;0.40;;;22.20;25.30;;;;;;5081749;28;20043;-61
2021/04/27 03:54:16;;;;;;;0.60;0.60;;;22.20;25.30;;;;;;5092431;28;20024;-62
2021/04/27 03:56:43;;;;;;;0.80;0.32;;;22.20;25.30;;;;;;5058275;28;20444;-62
2021/04/27 03:59:11;;;;;;;1.02;0.40;;;22.20;25.30;;;;;;5069922;28;20464;-63
2021/04/27 04:01:38;;;;;;;1.20;0.68;;;22.20;25.70;;;;;;5068601;28;20056;-61
2021/04/27 04:04:04;;;;;;;0.68;0.40;;;22.20;25.30;;;;;;5073903;28;20055;-62
2021/04/27 04:06:31;;;;;;;0.70;0.50;;;22.20;25.20;;;;;;5071330;28;20037;-61
2021/04/27 04:09:01;;;;;;;0.55;0.47;;;22.20;25.30;;;;;;5078320;28;20405;-61
2021/04/27 04:11:32;;;;;;;0.40;0.40;;;22.20;25.20;;;;;;5060558;28;20043;-61
2021/04/27 04:14:00;;;;;;;0.70;0.40;;;22.20;25.20;;;;;;5060813;28;20032;-60
2021/04/27 04:16:30;;;;;;;1.08;0.80;;;22.10;25.20;;;;;;5065612;28;20028;-62
2021/04/27 04:18:56;;;;;;;0.70;0.50;;;22.10;25.20;;;;;;5062119;28;20024;-61
2021/04/27 04:21:24;;;;;;;0.40;0.30;;;22.10;25.20;;;;;;5075165;28;20042;-59
2021/04/27 04:23:58;;;;;;;0.50;0.43;;;22.10;25.70;;;;;;5061892;28;20109;-62
2021/04/27 04:26:25;;;;;;;0.85;0.43;;;22.10;25.30;;;;;;5074412;28;20032;-61
2021/04/27 04:29:09;;;;;;;0.50;0.43;;;22.10;25.30;;;;;;5058964;28;20036;-60
2021/04/27 04:31:38;;;;;;;1.52;0.50;;;22.10;25.30;;;;;;5074563;28;20020;-61
2021/04/27 04:34:22;;;;;;;1.00;0.47;;;22.10;25.30;;;;;;5078334;28;20137;-60
2021/04/27 04:37:07;;;;;;;1.27;0.50;;;22.10;25.30;;;;;;5081976;28;20457;-62
2021/04/27 04:40:03;;;;;;;1.88;0.70;;;22.10;25.30;;;;;;5076631;28;20032;-62
2021/04/27 04:42:47;;;;;;;1.08;0.50;;;22.10;25.30;;;;;;5056742;28;20111;-61
2021/04/27 04:45:46;;;;;;;0.88;0.50;;;22.10;25.30;;;;;;5014037;28;20072;-62
2021/04/27 04:48:30;;;;;;;0.30;0.30;;;22.10;25.30;;;;;;5079210;28;20141;-61
2021/04/27 04:51:09;;;;;;;0.88;0.60;;;22.10;25.30;;;;;;5065221;28;20029;-62
2021/04/27 04:53:58;;;;;;;0.43;0.43;;;22.00;25.30;;;;;;5068877;28;20036;-61
2021/04/27 04:56:25;;;;;;;0.52;0.40;;;22.00;25.30;;;;;;5093498;28;20032;-60
2021/04/27 04:58:51;;;;;;;1.10;0.55;;;22.00;25.20;;;;;;5061507;28;20024;-61
2021/04/27 05:01:17;;;;;;;1.40;0.45;;;22.00;25.20;;;;;;5081644;28;20032;-61
2021/04/27 05:04:01;;;;;;;0.77;0.50;;;22.00;25.20;;;;;;5091760;28;20376;-62
2021/04/27 05:06:48;;;;;;;0.75;0.43;;;22.00;25.20;;;;;;5062318;28;20052;-61
2021/04/27 05:09:33;;;;;;;1.13;0.40;;;22.10;25.30;;;;;;5088743;28;20115;-61
2021/04/27 05:12:05;;;;;;;0.50;0.30;;;22.00;25.20;;;;;;5047331;28;20063;-61
2021/04/27 05:14:37;;;;;;;0.70;0.50;;;22.00;25.20;;;;;;5076500;28;20097;-61
2021/04/27 05:17:05;;;;;;;1.00;0.50;;;22.00;25.20;;;;;;5066387;28;20443;-62
2021/04/27 05:19:32;;;;;;;0.68;0.40;;;22.00;25.20;;;;;;5078169;28;20051;-61
2021/04/27 05:21:59;;;;;;;1.63;0.55;;;22.00;25.20;;;;;;5060697;28;20092;-62
2021/04/27 05:24:26;;;;;;;0.73;0.50;;;22.00;25.20;;;;;;5077391;28;20039;-63
2021/04/27 05:26:55;;;;;;;0.52;0.47;;;22.00;25.20;;;;;;5060374;28;20119;-61
2021/04/27 05:29:21;;;;;;;0.47;0.40;;;22.00;25.20;;;;;;5057804;28;20029;-61
2021/04/27 05:31:52;;;;;;;1.00;0.57;;;22.00;25.20;;;;;;5090379;28;20349;-60
2021/04/27 05:34:18;;;;;;;1.02;0.63;;;22.00;25.20;;;;;;5065775;28;20036;-61
2021/04/27 05:36:45;;;;;;;0.98;0.47;;;22.00;25.20;;;;;;5094396;28;20040;-61
2021/04/27 05:39:10;;;;;;;1.00;0.43;;;22.00;25.20;;;;;;5089106;28;20034;-61
2021/04/27 05:41:36;;;;;;;0.80;0.50;;;22.00;25.20;;;;;;5077381;28;20415;-62
2021/04/27 05:44:02;;;;;;;0.98;0.70;;;22.00;25.20;;;;;;5084818;28;20124;-61
2021/04/27 05:46:28;;;;;;;0.68;0.50;;;22.00;25.20;;;;;;5080311;28;20020;-62
2021/04/27 05:48:54;;;;;;;0.90;0.40;;;22.00;25.20;;;;;;5076003;28;20024;-62
2021/04/27 05:51:20;;;;;;;0.85;0.40;;;22.00;25.20;;;;;;5076512;28;20024;-62
2021/04/27 05:53:46;;;;;;;0.60;0.40;;;22.00;25.20;;;;;;5092808;28;20024;-62
2021/04/27 05:56:12;;;;;;;1.05;0.57;;;22.00;25.20;;;;;;5079579;28;20043;-61
2021/04/27 05:58:37;;;;;;;0.47;0.40;;;22.00;25.20;;;;;;5085160;28;20027;-62
2021/04/27 06:01:03;;;;;;;0.98;0.52;;;22.00;25.20;;;;;;5087021;28;20040;-61
2021/04/27 06:03:29;;;;;;;1.02;0.60;;;22.00;25.20;;;;;;5077783;28;20123;-62
2021/04/27 06:05:55;;;;;;;0.50;0.50;;;22.00;25.10;;;;;;5084058;28;20102;-60
2021/04/27 06:08:21;;;;;;;0.95;0.50;;;22.00;25.10;;;;;;5089435;28;20024;-60
2021/04/27 06:10:48;;;;;;;0.55;0.40;;;22.00;25.10;;;;;;5053489;28;20070;-62
2021/04/27 06:13:14;;;;;;;0.60;0.40;;;22.00;25.10;;;;;;5085811;28;20037;-62
2021/04/27 06:15:40;;;;;;;0.52;0.43;;;22.00;25.10;;;;;;5076206;28;20033;-62
2021/04/27 06:18:06;;;;;;;0.93;0.60;;;22.00;25.10;;;;;;5086907;28;20103;-62
2021/04/27 06:20:32;;;;;;;0.95;0.50;;;22.00;25.20;;;;;;5084942;28;20032;-59
2021/04/27 06:22:58;;;;;;;1.00;0.60;;;22.00;25.20;;;;;;5060551;28;20049;-61
2021/04/27 06:25:24;;;;;;;1.23;0.70;;;22.00;25.20;;;;;;5073224;28;20031;-63
2021/04/27 06:27:50;;;;;;;1.25;0.63;;;22.00;25.30;;;;;;5083655;28;20026;-61
2021/04/27 06:30:17;;;;;;;1.77;0.35;;;22.10;25.40;;;;;;5094615;28;20500;-61
2021/04/27 06:32:43;;;;;;;1.40;0.50;;;22.10;25.40;;;;;;5091279;28;20051;-62
2021/04/27 06:35:09;;;;;;;1.27;0.57;;;22.10;25.40;;;;;;5074497;28;20348;-62
2021/04/27 06:37:35;;;;;;;0.60;0.50;;;22.20;25.30;;;;;;5080791;28;20043;-62
2021/04/27 06:40:01;;;;;;;2.15;0.45;;;22.20;25.30;;;;;;5074175;28;20032;-63
2021/04/27 06:42:27;;;;;;;0.60;0.47;;;22.20;25.20;;;;;;5039728;28;20033;-63
2021/04/27 06:44:52;;;;;;;0.60;0.50;;;22.30;25.10;;;;;;5055675;28;20352;-62
2021/04/27 06:47:18;;;;;;;1.33;0.50;;;22.30;25.00;;;;;;5075996;28;20024;-63
2021/04/27 06:49:44;;;;;;;1.90;0.40;;;22.40;25.00;;;;;;5070252;28;20052;-64
2021/04/27 06:52:10;;;;;;;0.55;0.40;;;22.30;24.90;;;;;;5068660;28;20044;-64
2021/04/27 06:54:40;;;;;;;0.95;0.50;;;22.40;24.80;;;;;;5073894;28;20025;-63
2021/04/27 06:57:06;;;;;;;0.40;0.35;;;22.40;24.80;;;;;;5083263;28;20093;-60
2021/04/27 06:59:32;;;;;;;0.82;0.52;;;22.40;24.70;;;;;;5064698;28;20106;-63
2021/04/27 07:02:04;;;;;;;1.23;0.50;;;22.40;24.70;;;;;;5073840;28;20371;-62
2021/04/27 07:04:30;;;;;;;0.60;0.47;;;22.40;24.60;;;;;;5057315;28;20453;-62
2021/04/27 07:06:56;;;;;;;0.85;0.50;;;22.50;24.60;;;;;;5072039;28;20043;-63
2021/04/27 07:09:22;;;;;;;0.63;0.52;;;22.50;24.60;;;;;;5075321;28;20078;-64
2021/04/27 07:11:48;;;;;;;0.45;0.40;;;22.50;24.60;;;;;;5059232;28;20036;-62
2021/04/27 07:14:14;;;;;;;0.90;0.43;;;22.50;24.60;;;;;;5079522;28;20032;-62
2021/04/27 07:16:40;;;;;;;1.30;0.50;;;22.50;24.60;;;;;;5075152;28;20440;-62
2021/04/27 07:19:06;;;;;;;0.57;0.50;;;22.50;24.60;;;;;;5081964;28;20032;-62
2021/04/27 07:21:32;;;;;;;1.20;0.60;;;22.50;24.70;;;;;;5079281;28;20489;-62
2021/04/27 07:23:58;;;;;;;1.10;0.55;;;22.50;24.70;;;;;;5089837;28;20051;-64
2021/04/27 07:26:24;;;;;;;1.10;0.50;;;22.50;24.70;;;;;;5077522;28;20025;-62
2021/04/27 07:28:49;;;;;;;1.33;0.40;;;22.40;24.60;;;;;;5076343;28;20051;-62
2021/04/27 07:31:15;;;;;;;0.77;0.50;;;22.50;24.70;;;;;;5077461;28;20111;-61
2021/04/27 07:33:41;;;;;;;0.50;0.47;;;22.40;24.70;;;;;;5078058;28;20444;-63
2021/04/27 07:36:07;;;;;;;1.48;0.60;;;22.40;24.70;;;;;;5082703;28;20027;-61
2021/04/27 07:38:35;;;;;;;1.48;0.60;;;22.40;24.70;;;;;;5075901;28;20034;-61
2021/04/27 07:41:01;;;;;;;0.73;0.70;;;22.40;24.70;;;;;;5089814;28;20331;-61
2021/04/27 07:43:27;;;;;;;0.50;0.45;;;22.40;24.70;;;;;;5097686;28;20047;-61
2021/04/27 07:45:53;;;;;;;0.38;0.38;;;22.40;24.70;;;;;;5087056;28;20025;-61
2021/04/27 07:48:19;;;;;;;1.50;0.70;;;22.40;25.30;;;;;;5063122;28;20042;-62
2021/04/27 07:50:44;;;;;;;1.10;0.55;;;22.40;25.30;;;;;;5087276;28;20029;-60
2021/04/27 07:53:10;;;;;;;0.80;0.55;;;22.40;24.80;;;;;;5077806;28;20467;-62
2021/04/27 07:55:36;;;;;;;3.00;1.35;;;22.40;24.80;;;;;;5079616;28;20021;-61
2021/04/27 07:58:03;;;;;;;0.60;0.60;;;22.40;24.80;;;;;;5077824;28;20116;-60
2021/04/27 08:00:28;;;;;;;0.90;0.50;;;22.30;24.80;;;;;;5072051;28;20123;-60
2021/04/27 08:02:54;;;;;;;0.80;0.50;;;22.30;24.80;;;;;;5052832;28;20177;-62
2021/04/27 08:05:22;;;;;;;0.60;0.50;;;22.30;24.80;;;;;;5060060;28;20313;-64
2021/04/27 08:07:48;;;;;;;1.02;0.60;;;22.40;24.80;;;;;;5056122;28;20070;-62
2021/04/27 08:10:15;;;;;;;1.00;0.50;;;22.30;24.70;;;;;;5049886;28;20040;-63
2021/04/27 08:12:43;;;;;;;0.63;0.57;;;22.30;24.70;;;;;;5069531;28;20485;-65
2021/04/27 08:15:11;;;;;;;0.90;0.60;;;22.30;24.70;;;;;;5062187;28;20040;-62
2021/04/27 08:17:37;;;;;;;0.85;0.55;;;22.30;24.70;;;;;;5089653;28;20032;-63
2021/04/27 08:20:05;;;;;;;0.75;0.50;;;22.30;24.70;;;;;;5059521;28;20099;-62
2021/04/27 08:22:31;;;;;;;0.63;0.60;;;22.30;24.70;;;;;;5091836;28;20454;-63
2021/04/27 08:24:57;;;;;;;0.80;0.40;;;22.30;24.70;;;;;;5065569;28;20404;-61
2021/04/27 08:27:23;;;;;;;2.03;0.60;;;22.30;24.70;;;;;;5095482;28;20118;-61
2021/04/27 08:29:49;;;;;;;1.08;0.70;;;22.30;24.70;;;;;;5085831;28;20028;-61
2021/04/27 08:32:14;;;;;;;1.13;0.60;;;22.30;24.70;;;;;;5063282;28;20336;-61
2021/04/27 08:34:40;;;;;;;0.60;0.50;;;22.30;24.70;;;;;;5068652;28;20030;-62
2021/04/27 08:37:06;;;;;;;1.45;0.70;;;22.30;24.70;;;;;;5092852;28;20127;-62
2021/04/27 08:39:32;;;;;;;0.75;0.60;;;22.30;24.70;;;;;;5060381;28;20028;-62
2021/04/27 08:41:59;;;;;;;0.50;0.45;;;22.30;24.70;;;;;;5064206;28;20028;-62
2021/04/27 08:44:25;;;;;;;0.98;0.63;;;22.30;24.70;;;;;;5077864;28;20098;-61
2021/04/27 08:46:51;;;;;;;0.88;0.50;;;22.30;24.70;;;;;;5094193;28;20455;-64
2021/04/27 08:49:17;;;;;;;0.50;0.50;;;22.30;24.70;;;;;;5076401;28;20043;-61
2021/04/27 08:51:43;;;;;;;0.65;0.40;;;22.30;24.70;;;;;;5089531;28;20027;-62
2021/04/27 08:54:09;;;;;;;1.40;0.57;;;22.30;24.70;;;;;;5062992;28;20040;-61
2021/04/27 08:56:35;;;;;;;0.93;0.40;;;22.30;24.70;;;;;;5061561;28;20029;-62
2021/04/27 08:59:02;;;;;;;1.05;0.60;;;22.40;24.80;;;;;;5078385;28;20085;-62
2021/04/27 09:01:27;;;;;;;1.35;0.50;;;22.30;25.20;;;;;;5074028;28;20048;-61
2021/04/27 09:03:55;;;;;;;0.90;0.50;;;22.30;24.70;;;;;;5066690;28;20048;-51
2021/04/27 09:06:23;;;;;;;0.70;0.52;;;22.30;24.70;;;;;;5058265;28;20332;-50
2021/04/27 09:08:50;;;;;;;1.05;0.85;;;22.30;24.80;;;;;;5062665;28;20032;-51
2021/04/27 09:11:35;;;;;;;0.68;0.52;;;22.30;24.80;;;;;;5058908;28;20425;-49
2021/04/27 09:14:18;;;;;;;0.93;0.60;;;22.30;24.70;;;;;;5072249;28;20106;-51
2021/04/27 09:16:54;;;;;;;0.80;0.60;;;22.30;24.80;;;;;;5074044;28;20099;-53
2021/04/27 09:19:42;;;;;;;0.93;0.65;;;22.30;24.70;;;;;;5077217;28;20037;-51
2021/04/27 09:22:18;;;;;;;1.05;0.60;;;22.30;24.70;;;;;;5079530;28;20341;-59
2021/04/27 09:24:52;;;;;;;0.40;0.40;;;22.30;24.70;;;;;;5055740;28;21704;-62
2021/04/27 09:27:38;;;;;;;1.75;0.50;;;22.30;24.70;;;;;;5069845;28;20046;-56
2021/04/27 09:30:23;;;;;;;0.60;0.40;;;22.30;24.70;;;;;;5072844;28;20081;-57
2021/04/27 09:32:53;;;;;;;0.80;0.45;;;22.30;24.70;;;;;;5066732;28;20024;-53
2021/04/27 09:35:33;;;;;;;1.00;0.80;;;22.30;24.70;;;;;;5082757;28;20043;-52
2021/04/27 09:38:13;;;;;;;0.38;0.38;;;22.30;24.70;;;;;;5091258;28;20036;-47
2021/04/27 09:40:58;;;;;;;0.90;0.50;;;22.30;24.60;;;;;;5087063;28;20025;-51
2021/04/27 09:43:41;;;;;;;0.73;0.52;;;22.30;24.60;;;;;;5096938;28;20040;-49
2021/04/27 09:46:10;;;;;;;0.80;0.47;;;22.30;24.60;;;;;;5087229;28;20038;-47
2021/04/27 09:48:39;;;;;;;0.82;0.60;;;22.30;24.50;;;;;;5076360;28;20428;-53
2021/04/27 09:51:13;;;;;;;1.15;0.50;;;22.30;24.50;;;;;;5088857;28;20029;-59
2021/04/27 09:53:51;;;;;;;1.08;0.50;;;22.40;24.50;;;;;;5087994;28;20028;-50
2021/04/27 09:56:35;;;;;;;1.10;0.60;;;22.40;24.50;;;;;;5081747;28;20448;-58
2021/04/27 09:59:12;;;;;;;0.77;0.50;;;22.40;24.40;;;;;;5090231;28;20055;-57
2021/04/27 10:01:40;;;;;;;1.27;0.60;;;22.40;24.40;;;;;;5084855;28;20024;-61
2021/04/27 10:04:08;;;;;;;0.68;0.57;;;22.40;24.40;;;;;;5083654;28;20113;-57
2021/04/27 10:06:35;;;;;;;0.80;0.57;;;22.40;24.40;;;;;;5082895;28;20101;-55
2021/04/27 10:09:02;;;;;;;0.70;0.40;;;22.40;24.40;;;;;;5090615;28;20047;-56
2021/04/27 10:11:28;;;;;;;0.90;0.60;;;22.40;24.40;;;;;;5076682;28;20093;-57
2021/04/27 10:13:55;;;;;;;0.43;0.43;;;22.40;24.40;;;;;;5067126;28;20024;-56
2021/04/27 10:16:23;;;;;;;0.40;0.40;;;22.50;24.40;;;;;;5072532;28;20102;-50
2021/04/27 10:18:52;;;;;;;1.13;0.40;;;22.50;24.40;;;;;;5039357;28;20116;-55
2021/04/27 10:21:18;;;;;;;0.60;0.40;;;22.50;24.30;;;;;;5063255;28;20025;-55
2021/04/27 10:23:50;;;;;;;0.73;0.50;;;22.50;24.30;;;;;;5080959;28;20063;-57
2021/04/27 10:26:23;;;;;;;1.33;0.50;;;22.50;24.40;;;;;;5054692;28;20375;-56
2021/04/27 10:29:13;;;;;;;0.93;0.50;;;22.50;24.40;;;;;;5067776;28;20059;-57
2021/04/27 10:31:40;;;;;;;0.47;0.32;;;22.50;24.30;;;;;;5054396;28;20047;-57
2021/04/27 10:34:11;;;;;;;0.75;0.40;;;22.60;24.40;;;;;;5061199;28;20389;-56
2021/04/27 10:36:49;;;;;;;0.98;0.40;;;22.60;24.30;;;;;;5055911;28;20028;-54
2021/04/27 10:39:42;;;;;;;0.68;0.43;;;22.60;24.30;;;;;;5054336;28;20037;-57
2021/04/27 10:42:33;;;;;;;1.77;0.43;;;22.70;24.30;;;;;;5047291;28;20422;-52
2021/04/27 10:45:06;;;;;;;0.60;0.40;;;22.70;24.20;;;;;;5059209;28;20460;-53
2021/04/27 10:47:44;;;;;;;0.50;0.40;;;22.70;24.20;;;;;;5064030;28;20039;-58
2021/04/27 10:50:27;;;;;;;0.52;0.35;;;22.70;24.20;;;;;;5064322;28;20063;-61
2021/04/27 10:53:39;;;;;;;1.05;0.40;;;22.70;24.20;;;;;;5047151;28;20029;-57
2021/04/27 10:56:06;;;;;;;0.52;0.40;;;22.80;24.10;;;;;;5064368;28;20047;-60
2021/04/27 10:58:48;;;;;;;0.68;0.40;;;22.80;24.10;;;;;;5043529;28;20376;-57
2021/04/27 11:01:20;;;;;;;2.50;0.45;;;22.80;23.90;;;;;;5064282;28;20052;-53
2021/04/27 11:03:51;;;;;;;0.40;0.40;;;22.80;23.90;;;;;;5054436;28;20057;-53
2021/04/27 11:06:18;;;;;;;1.20;0.82;;;22.90;23.80;;;;;;5058303;28;20029;-53
2021/04/27 11:08:57;;;;;;;0.60;0.30;;;22.90;23.70;;;;;;5059809;28;20514;-57
2021/04/27 11:11:26;;;;;;;0.30;0.30;;;22.90;23.70;;;;;;5054068;28;20475;-59
2021/04/27 11:14:14;;;;;;;0.73;0.40;;;23.00;23.70;;;;;;5054576;28;20037;-57
2021/04/27 11:16:42;;;;;;;1.88;0.30;;;23.00;23.60;;;;;;5039350;28;20033;-58
2021/04/27 11:19:21;;;;;;;1.55;0.32;;;23.00;23.60;;;;;;5058333;28;20035;-57
2021/04/27 11:21:53;;;;;;;0.75;0.52;;;23.00;23.60;;;;;;5049395;28;20452;-57
2021/04/27 11:24:36;;;;;;;0.95;0.57;;;23.00;23.60;;;;;;5066173;28;20040;-60
2021/04/27 11:27:03;;;;;;;1.13;0.73;;;23.10;23.50;;;;;;5057786;28;20048;-59
2021/04/27 11:29:34;;;;;;;0.82;0.73;;;23.10;23.60;;;;;;5054814;28;20423;-59
2021/04/27 11:32:13;;;;;;;2.00;1.10;;;23.10;23.50;;;;;;5041343;28;20128;-61
2021/04/27 11:35:01;;;;;;;0.90;0.80;;;23.10;23.60;;;;;;5065670;28;20079;-58
2021/04/27 11:37:30;;;;;;;1.20;0.90;;;23.10;23.50;;;;;;5056351;28;20040;-55
2021/04/27 11:39:58;;;;;;;2.60;1.10;;;23.20;23.60;;;;;;5061091;28;20091;-58
2021/04/27 11:42:31;;;;;;;1.88;0.98;;;23.20;23.60;;;;;;5063098;28;20033;-57
2021/04/27 11:45:06;;;;;;;1.10;0.90;;;23.20;23.50;;;;;;5072815;28;20047;-55
2021/04/27 11:47:35;;;;;;;2.47;1.00;;;23.20;23.50;;;;;;5073466;28;20127;-55
2021/04/27 11:50:08;;;;;;;1.95;1.17;;;23.20;23.40;;;;;;5053377;28;20364;-57
2021/04/27 11:52:45;;;;;;;1.63;1.15;;;23.20;23.40;;;;;;5054265;28;20472;-56
2021/04/27 11:55:34;;;;;;;1.50;1.08;;;23.20;23.30;;;;;;5053659;28;20075;-57
2021/04/27 11:58:23;;;;;;;1.00;0.90;;;23.20;23.20;;;;;;5052737;28;20069;-57
2021/04/27 12:00:55;;;;;;;1.10;1.00;;;23.20;23.10;;;;;;5053597;28;20051;-58
2021/04/27 12:03:28;;;;;;;1.40;1.00;;;23.20;23.10;;;;;;5035672;28;20581;-54
2021/04/27 12:06:18;;;;;;;1.15;1.05;;;23.20;23.00;;;;;;5061411;28;20067;-57
2021/04/27 12:08:53;;;;;;;1.30;0.90;;;23.20;23.00;;;;;;5053826;28;20036;-56
2021/04/27 12:11:34;;;;;;;0.90;0.80;;;23.20;23.00;;;;;;5054988;28;20033;-59
2021/04/27 12:14:13;;;;;;;1.17;0.80;;;23.20;23.00;;;;;;5053909;28;20120;-56
2021/04/27 12:16:44;;;;;;;1.75;0.90;;;23.20;23.00;;;;;;5067325;28;20025;-58
2021/04/27 12:19:17;;;;;;;2.53;0.90;;;23.20;23.10;;;;;;5066850;28;20013;-58
2021/04/27 12:21:48;;;;;;;1.83;0.80;;;23.30;23.10;;;;;;5035929;28;20095;-61
2021/04/27 12:24:28;;;;;;;1.42;0.80;;;23.30;23.20;;;;;;5060768;28;20048;-61
2021/04/27 12:26:55;;;;;;;1.50;0.70;;;23.30;23.20;;;;;;5062319;28;20032;-61
2021/04/27 12:29:28;;;;;;;0.90;0.63;;;23.30;23.20;;;;;;5072193;28;21787;-60
2021/04/27 12:31:54;;;;;;;1.20;0.80;;;23.40;23.20;;;;;;5070447;28;20043;-58
2021/04/27 12:34:20;;;;;;;1.25;0.73;;;23.40;23.10;;;;;;5068335;28;20031;-58
2021/04/27 12:36:48;;;;;;;1.10;0.80;;;23.40;23.10;;;;;;5056991;28;20047;-57
2021/04/27 12:39:20;;;;;;;1.50;0.98;;;23.40;23.00;;;;;;5056588;28;20521;-57
2021/04/27 12:41:46;;;;;;;1.20;0.73;;;23.40;23.00;;;;;;5064411;28;20033;-56
2021/04/27 12:44:40;;;;;;;1.00;0.60;;;23.40;23.00;;;;;;5064096;28;20037;-53
2021/04/27 12:47:21;;;;;;;1.15;0.70;;;23.50;23.00;;;;;;5055995;28;20116;-54
2021/04/27 12:49:58;;;;;;;1.30;0.88;;;23.50;23.10;;;;;;5056736;28;20098;-60
2021/04/27 12:52:24;;;;;;;1.08;0.80;;;23.50;23.10;;;;;;5066076;28;20029;-55
2021/04/27 12:55:02;;;;;;;0.95;0.85;;;23.50;23.10;;;;;;5061849;28;20057;-59
2021/04/27 12:57:28;;;;;;;1.58;0.77;;;23.50;23.10;;;;;;5067297;28;20036;-59
2021/04/27 13:00:00;;;;;;;1.45;0.73;;;23.50;23.10;;;;;;5063950;28;20104;-59
2021/04/27 13:02:26;;;;;;;1.35;1.00;;;23.50;23.00;;;;;;5056426;28;20368;-61
2021/04/27 13:04:55;;;;;;;2.20;1.40;;;23.50;23.00;;;;;;5061989;28;20049;-62
2021/04/27 13:07:23;;;;;;;2.47;1.55;;;23.50;23.00;;;;;;5057858;28;20098;-61